createdAt,value
2023-02-09T00:00:33.383Z,0.00
2023-02-09T00:01:33.809Z,0.00
2023-02-09T00:02:33.153Z,0.00
2023-02-09T00:03:32.646Z,0.00
2023-02-09T00:04:33.014Z,0.00
2023-02-09T00:05:33.413Z,0.00
2023-02-09T00:06:32.783Z,0.00
2023-02-09T00:07:34.139Z,0.00
2023-02-09T00:08:32.548Z,0.00
2023-02-09T00:09:33.959Z,0.00
2023-02-09T00:10:33.304Z,0.00
2023-02-09T00:11:33.759Z,0.00
2023-02-09T00:12:32.145Z,0.00
2023-02-09T00:13:33.495Z,0.00
2023-02-09T00:14:33.935Z,0.00
2023-02-09T00:15:32.342Z,0.00
2023-02-09T00:16:33.788Z,0.00
2023-02-09T00:17:32.269Z,0.00
2023-02-09T00:18:32.596Z,0.00
2023-02-09T00:19:33.319Z,0.00
2023-02-09T00:20:33.370Z,0.00
2023-02-09T00:21:33.856Z,0.00
2023-02-09T00:22:32.246Z,0.00
2023-02-09T00:23:32.848Z,0.00
2023-02-09T00:24:32.060Z,0.00
2023-02-09T00:25:32.524Z,0.00
2023-02-09T00:26:31.884Z,0.00
2023-02-09T00:27:33.335Z,0.00
2023-02-09T00:28:32.875Z,0.00
2023-02-09T00:29:32.233Z,0.00
2023-02-09T00:30:32.639Z,0.00
2023-02-09T00:31:33.007Z,0.00
2023-02-09T00:32:32.494Z,0.00
2023-02-09T00:33:31.834Z,0.00
2023-02-09T00:34:33.239Z,0.00
2023-02-09T00:35:32.729Z,0.00
2023-02-09T00:36:32.089Z,0.00
2023-02-09T00:37:33.463Z,0.00
2023-02-09T00:38:31.908Z,0.00
2023-02-09T00:39:32.303Z,0.00
2023-02-09T00:40:33.673Z,0.00
2023-02-09T00:41:32.098Z,0.00
2023-02-09T00:42:32.503Z,0.00
2023-02-09T00:43:32.837Z,0.00
2023-02-09T00:44:32.326Z,0.00
2023-02-09T00:45:31.751Z,0.00
2023-02-09T00:46:33.058Z,0.00
2023-02-09T00:47:33.465Z,0.00
2023-02-09T00:48:31.898Z,0.00
2023-02-09T00:49:32.328Z,0.00
2023-02-09T00:50:32.662Z,0.00
2023-02-09T00:51:33.073Z,0.00
2023-02-09T00:52:32.523Z,0.00
2023-02-09T00:53:31.904Z,0.00
2023-02-09T00:54:33.286Z,0.00
2023-02-09T00:55:32.725Z,0.00
2023-02-09T00:56:33.098Z,0.00
2023-02-09T00:57:32.463Z,0.00
2023-02-09T00:58:32.938Z,0.00
2023-02-09T00:59:32.374Z,0.00
2023-02-09T01:00:31.762Z,0.00
2023-02-09T01:01:33.175Z,0.00
2023-02-09T01:02:32.555Z,0.00
2023-02-09T01:03:32.972Z,0.00
2023-02-09T01:04:33.431Z,0.00
2023-02-09T01:05:31.832Z,0.00
2023-02-09T01:06:32.340Z,0.00
2023-02-09T01:07:31.651Z,0.00
2023-02-09T01:08:33.085Z,0.00
2023-02-09T01:09:31.492Z,0.00
2023-02-09T01:10:32.852Z,0.00
2023-02-09T01:11:32.322Z,0.00
2023-02-09T01:12:31.695Z,0.00
2023-02-09T01:13:32.109Z,0.00
2023-02-09T01:14:31.473Z,0.00
2023-02-09T01:15:31.912Z,0.00
2023-02-09T01:16:32.308Z,0.00
2023-02-09T01:17:32.685Z,0.00
2023-02-09T01:18:33.094Z,0.00
2023-02-09T01:19:32.448Z,0.00
2023-02-09T01:20:31.938Z,0.00
2023-02-09T01:21:31.301Z,0.00
2023-02-09T01:22:31.697Z,0.00
2023-02-09T01:23:33.178Z,0.00
2023-02-09T01:24:32.450Z,0.00
2023-02-09T01:25:32.883Z,0.00
2023-02-09T01:26:31.314Z,0.00
2023-02-09T01:27:31.722Z,0.00
2023-02-09T01:28:33.108Z,0.00
2023-02-09T01:29:31.823Z,0.00
2023-02-09T01:30:32.927Z,0.00
2023-02-09T01:31:32.548Z,0.00
2023-02-09T01:32:31.757Z,0.00
2023-02-09T01:33:32.077Z,0.00
2023-02-09T01:34:32.520Z,0.00
2023-02-09T01:35:32.285Z,0.00
2023-02-09T01:36:32.363Z,0.00
2023-02-09T01:37:32.786Z,0.00
2023-02-09T01:38:31.289Z,0.00
2023-02-09T01:39:32.650Z,0.00
2023-02-09T01:40:31.094Z,0.00
2023-02-09T01:41:31.583Z,0.00
2023-02-09T01:42:31.905Z,0.00
2023-02-09T01:43:31.425Z,0.00
2023-02-09T01:44:31.867Z,0.00
2023-02-09T01:45:31.308Z,0.00
2023-02-09T01:46:32.761Z,0.00
2023-02-09T01:47:31.166Z,0.00
2023-02-09T01:48:31.646Z,0.00
2023-02-09T01:49:31.990Z,0.00
2023-02-09T01:50:32.441Z,0.00
2023-02-09T01:51:31.829Z,0.00
2023-02-09T01:52:32.208Z,0.00
2023-02-09T01:53:32.798Z,0.00
2023-02-09T01:54:31.107Z,0.00
2023-02-09T01:55:32.527Z,0.00
2023-02-09T01:56:30.962Z,0.00
2023-02-09T01:57:31.417Z,0.00
2023-02-09T01:58:31.742Z,0.00
2023-02-09T01:59:32.203Z,0.00
2023-02-09T02:00:32.667Z,0.00
2023-02-09T02:01:32.142Z,0.00
2023-02-09T02:02:32.487Z,0.00
2023-02-09T02:03:30.892Z,0.00
2023-02-09T02:04:31.342Z,0.00
2023-02-09T02:05:31.698Z,0.00
2023-02-09T02:06:32.133Z,0.00
2023-02-09T02:07:31.520Z,0.00
2023-02-09T02:08:31.021Z,0.00
2023-02-09T02:09:31.451Z,0.00
2023-02-09T02:10:30.913Z,0.00
2023-02-09T02:11:32.236Z,0.00
2023-02-09T02:12:30.668Z,0.00
2023-02-09T02:13:32.068Z,0.00
2023-02-09T02:14:31.464Z,0.00
2023-02-09T02:15:31.057Z,0.00
2023-02-09T02:16:32.356Z,0.00
2023-02-09T02:17:31.763Z,0.00
2023-02-09T02:18:31.213Z,0.00
2023-02-09T02:19:31.564Z,0.00
2023-02-09T02:20:31.032Z,0.00
2023-02-09T02:21:31.394Z,0.00
2023-02-09T02:22:30.886Z,0.00
2023-02-09T02:23:31.306Z,0.00
2023-02-09T02:24:31.633Z,0.00
2023-02-09T02:25:31.126Z,0.00
2023-02-09T02:26:30.537Z,0.00
2023-02-09T02:27:31.915Z,0.00
2023-02-09T02:28:30.482Z,0.00
2023-02-09T02:29:31.758Z,0.00
2023-02-09T02:30:32.220Z,0.00
2023-02-09T02:31:31.685Z,0.00
2023-02-09T02:32:31.076Z,0.00
2023-02-09T02:33:30.459Z,0.00
2023-02-09T02:34:30.900Z,0.00
2023-02-09T02:35:30.312Z,0.00
2023-02-09T02:36:31.695Z,0.00
2023-02-09T02:37:32.168Z,0.00
2023-02-09T02:38:30.590Z,0.00
2023-02-09T02:39:31.021Z,0.00
2023-02-09T02:40:31.403Z,0.00
2023-02-09T02:41:31.823Z,0.00
2023-02-09T02:42:31.242Z,0.00
2023-02-09T02:43:31.800Z,0.00
2023-02-09T02:44:30.120Z,0.00
2023-02-09T02:45:31.517Z,0.00
2023-02-09T02:46:31.120Z,0.00
2023-02-09T02:47:30.403Z,0.00
2023-02-09T02:48:31.835Z,0.00
2023-02-09T02:49:31.220Z,0.00
2023-02-09T02:50:30.753Z,0.00
2023-02-09T02:51:31.056Z,0.00
2023-02-09T02:52:31.492Z,0.00
2023-02-09T02:53:30.014Z,0.00
2023-02-09T02:54:31.395Z,0.00
2023-02-09T02:55:31.809Z,0.00
2023-02-09T02:56:30.228Z,0.00
2023-02-09T02:57:30.671Z,0.00
2023-02-09T02:58:31.037Z,0.00
2023-02-09T02:59:31.471Z,0.00
2023-02-09T03:00:29.957Z,0.00
2023-02-09T03:01:31.320Z,0.00
2023-02-09T03:02:30.769Z,0.00
2023-02-09T03:03:30.173Z,0.00
2023-02-09T03:04:31.557Z,0.00
2023-02-09T03:05:30.081Z,0.00
2023-02-09T03:06:31.364Z,0.00
2023-02-09T03:07:29.856Z,0.00
2023-02-09T03:08:31.203Z,0.00
2023-02-09T03:09:31.598Z,0.00
2023-02-09T03:10:30.116Z,0.00
2023-02-09T03:11:31.409Z,0.00
2023-02-09T03:12:29.851Z,0.00
2023-02-09T03:13:30.355Z,0.00
2023-02-09T03:14:29.659Z,0.00
2023-02-09T03:15:31.056Z,0.00
2023-02-09T03:16:30.556Z,0.00
2023-02-09T03:17:32.785Z,0.00
2023-02-09T03:18:31.299Z,0.00
2023-02-09T03:19:29.723Z,0.00
2023-02-09T03:20:30.186Z,0.00
2023-02-09T03:21:32.596Z,0.00
2023-02-09T03:22:30.888Z,0.00
2023-02-09T03:23:30.458Z,0.00
2023-02-09T03:24:29.845Z,0.00
2023-02-09T03:25:30.298Z,0.00
2023-02-09T03:26:29.733Z,0.00
2023-02-09T03:27:31.119Z,0.00
2023-02-09T03:28:29.549Z,0.00
2023-02-09T03:29:29.953Z,0.00
2023-02-09T03:30:30.433Z,0.00
2023-02-09T03:31:29.871Z,0.00
2023-02-09T03:32:30.228Z,0.00
2023-02-09T03:33:29.631Z,0.00
2023-02-09T03:34:30.080Z,0.00
2023-02-09T03:35:29.483Z,0.00
2023-02-09T03:36:29.898Z,0.00
2023-02-09T03:37:31.448Z,0.00
2023-02-09T03:38:29.742Z,0.00
2023-02-09T03:39:30.202Z,0.00
2023-02-09T03:40:29.545Z,0.00
2023-02-09T03:41:30.983Z,0.00
2023-02-09T03:42:29.398Z,0.00
2023-02-09T03:43:29.958Z,0.00
2023-02-09T03:44:31.238Z,0.00
2023-02-09T03:45:29.679Z,0.00
2023-02-09T03:46:31.077Z,0.00
2023-02-09T03:47:29.495Z,0.00
2023-02-09T03:48:29.937Z,0.00
2023-02-09T03:49:29.349Z,0.00
2023-02-09T03:50:29.755Z,0.00
2023-02-09T03:51:31.093Z,0.00
2023-02-09T03:52:29.537Z,0.00
2023-02-09T03:53:29.967Z,0.00
2023-02-09T03:54:29.453Z,0.00
2023-02-09T03:55:29.806Z,0.00
2023-02-09T03:56:29.177Z,0.00
2023-02-09T03:57:29.573Z,0.00
2023-02-09T03:58:30.015Z,0.00
2023-02-09T03:59:29.492Z,0.00
2023-02-09T04:00:29.957Z,0.00
2023-02-09T04:01:29.250Z,0.00
2023-02-09T04:02:29.749Z,0.00
2023-02-09T04:03:29.109Z,0.00
2023-02-09T04:04:29.545Z,0.00
2023-02-09T04:05:30.004Z,0.00
2023-02-09T04:06:29.478Z,0.00
2023-02-09T04:07:30.812Z,0.00
2023-02-09T04:08:29.278Z,0.00
2023-02-09T04:09:30.668Z,0.00
2023-02-09T04:10:30.188Z,0.00
2023-02-09T04:11:29.615Z,0.00
2023-02-09T04:12:28.984Z,0.00
2023-02-09T04:13:30.378Z,0.00
2023-02-09T04:14:29.878Z,0.00
2023-02-09T04:15:29.273Z,0.00
2023-02-09T04:16:29.805Z,0.00
2023-02-09T04:17:29.180Z,0.00
2023-02-09T04:18:30.553Z,0.00
2023-02-09T04:19:30.001Z,0.00
2023-02-09T04:20:30.394Z,0.00
2023-02-09T04:21:28.849Z,0.00
2023-02-09T04:22:29.314Z,0.00
2023-02-09T04:23:29.773Z,0.00
2023-02-09T04:24:29.131Z,0.00
2023-02-09T04:25:29.566Z,0.00
2023-02-09T04:26:29.233Z,0.00
2023-02-09T04:27:29.447Z,0.00
2023-02-09T04:28:28.875Z,0.00
2023-02-09T04:29:29.235Z,0.00
2023-02-09T04:30:29.683Z,0.00
2023-02-09T04:31:29.266Z,0.00
2023-02-09T04:32:29.510Z,0.00
2023-02-09T04:33:28.879Z,0.00
2023-02-09T04:34:29.312Z,0.00
2023-02-09T04:35:29.801Z,0.00
2023-02-09T04:36:29.153Z,0.00
2023-02-09T04:37:29.601Z,0.00
2023-02-09T04:38:29.377Z,0.00
2023-02-09T04:39:29.432Z,0.00
2023-02-09T04:40:28.830Z,0.00
2023-02-09T04:41:30.231Z,0.00
2023-02-09T04:42:28.700Z,0.00
2023-02-09T04:43:30.100Z,0.00
2023-02-09T04:44:28.567Z,0.00
2023-02-09T04:45:29.023Z,0.00
2023-02-09T04:46:29.464Z,0.00
2023-02-09T04:47:28.877Z,0.00
2023-02-09T04:48:29.347Z,0.00
2023-02-09T04:49:28.763Z,0.00
2023-02-09T04:50:29.238Z,0.00
2023-02-09T04:51:30.724Z,0.00
2023-02-09T04:52:29.048Z,0.00
2023-02-09T04:53:28.427Z,0.00
2023-02-09T04:54:29.822Z,0.00
2023-02-09T04:55:29.311Z,0.00
2023-02-09T04:56:28.718Z,0.00
2023-02-09T04:57:30.078Z,0.00
2023-02-09T04:58:29.538Z,0.00
2023-02-09T04:59:29.010Z,0.00
2023-02-09T05:00:29.333Z,0.00
2023-02-09T05:01:28.860Z,0.00
2023-02-09T05:02:30.215Z,0.00
2023-02-09T05:03:29.638Z,0.00
2023-02-09T05:04:29.088Z,0.00
2023-02-09T05:05:29.468Z,0.00
2023-02-09T05:06:28.958Z,0.00
2023-02-09T05:07:28.368Z,0.00
2023-02-09T05:08:28.840Z,0.00
2023-02-09T05:09:28.207Z,0.00
2023-02-09T05:10:28.678Z,0.00
2023-02-09T05:11:29.169Z,0.00
2023-02-09T05:12:28.554Z,0.00
2023-02-09T05:13:29.033Z,0.00
2023-02-09T05:14:29.379Z,0.00
2023-02-09T05:15:28.881Z,0.00
2023-02-09T05:16:28.341Z,0.00
2023-02-09T05:17:28.804Z,0.00
2023-02-09T05:18:28.218Z,0.00
2023-02-09T05:19:28.739Z,0.00
2023-02-09T05:20:28.083Z,0.00
2023-02-09T05:21:29.479Z,0.00
2023-02-09T05:22:28.978Z,0.00
2023-02-09T05:23:28.384Z,0.00
2023-02-09T05:24:28.816Z,0.00
2023-02-09T05:25:28.219Z,0.00
2023-02-09T05:26:28.660Z,0.00
2023-02-09T05:27:28.083Z,0.00
2023-02-09T05:28:28.645Z,0.00
2023-02-09T05:29:28.864Z,0.00
2023-02-09T05:30:29.329Z,0.00
2023-02-09T05:31:29.874Z,0.00
2023-02-09T05:32:29.159Z,0.00
2023-02-09T05:33:28.725Z,0.00
2023-02-09T05:34:28.088Z,0.00
2023-02-09T05:35:29.480Z,0.00
2023-02-09T05:36:27.953Z,0.00
2023-02-09T05:37:28.417Z,0.00
2023-02-09T05:38:28.868Z,0.00
2023-02-09T05:39:28.358Z,0.00
2023-02-09T05:40:29.704Z,0.00
2023-02-09T05:41:28.159Z,0.00
2023-02-09T05:42:29.566Z,0.00
2023-02-09T05:43:28.991Z,0.00
2023-02-09T05:44:28.498Z,0.00
2023-02-09T05:45:27.970Z,0.00
2023-02-09T05:46:29.450Z,0.00
2023-02-09T05:47:27.875Z,0.00
2023-02-09T05:48:28.303Z,0.00
2023-02-09T05:49:28.666Z,0.00
2023-02-09T05:50:28.213Z,0.00
2023-02-09T05:51:28.654Z,0.00
2023-02-09T05:52:28.075Z,0.00
2023-02-09T05:53:28.523Z,0.00
2023-02-09T05:54:27.948Z,0.00
2023-02-09T05:55:28.472Z,0.00
2023-02-09T05:56:27.866Z,0.00
2023-02-09T05:57:28.321Z,0.00
2023-02-09T05:58:27.772Z,0.00
2023-02-09T05:59:28.247Z,0.00
2023-02-09T06:00:27.661Z,0.00
2023-02-09T06:01:28.305Z,0.00
2023-02-09T06:02:27.630Z,0.00
2023-02-09T06:03:28.102Z,0.00
2023-02-09T06:04:28.508Z,0.00
2023-02-09T06:05:27.903Z,0.00
2023-02-09T06:06:28.490Z,0.00
2023-02-09T06:07:27.819Z,0.00
2023-02-09T06:08:28.289Z,0.00
2023-02-09T06:09:27.718Z,0.00
2023-02-09T06:10:29.138Z,0.00
2023-02-09T06:11:28.564Z,0.00
2023-02-09T06:12:28.156Z,0.00
2023-02-09T06:13:27.554Z,0.00
2023-02-09T06:14:28.060Z,0.00
2023-02-09T06:15:27.495Z,0.00
2023-02-09T06:16:28.032Z,0.00
2023-02-09T06:17:27.387Z,0.00
2023-02-09T06:18:27.914Z,0.00
2023-02-09T06:19:28.272Z,0.00
2023-02-09T06:20:27.779Z,0.00
2023-02-09T06:21:29.191Z,0.00
2023-02-09T06:22:27.729Z,0.00
2023-02-09T06:23:28.292Z,0.00
2023-02-09T06:24:27.596Z,0.00
2023-02-09T06:25:29.084Z,0.00
2023-02-09T06:26:27.488Z,0.00
2023-02-09T06:27:28.944Z,0.00
2023-02-09T06:28:27.423Z,0.00
2023-02-09T06:29:28.067Z,0.00
2023-02-09T06:30:27.444Z,0.00
2023-02-09T06:31:27.953Z,0.00
2023-02-09T06:32:28.197Z,0.00
2023-02-09T06:33:27.702Z,0.00
2023-02-09T06:34:27.172Z,0.00
2023-02-09T06:35:27.686Z,0.00
2023-02-09T06:36:29.019Z,0.00
2023-02-09T06:37:28.458Z,0.00
2023-02-09T06:38:28.936Z,0.00
2023-02-09T06:39:27.400Z,0.00
2023-02-09T06:40:27.890Z,0.00
2023-02-09T06:41:27.390Z,0.00
2023-02-09T06:42:29.090Z,0.00
2023-02-09T06:43:28.086Z,0.00
2023-02-09T06:44:28.566Z,0.00
2023-02-09T06:45:27.022Z,0.00
2023-02-09T06:46:27.562Z,0.00
2023-02-09T06:47:28.911Z,0.00
2023-02-09T06:48:28.291Z,0.00
2023-02-09T06:49:27.788Z,0.00
2023-02-09T06:50:27.218Z,0.00
2023-02-09T06:51:27.661Z,0.00
2023-02-09T06:52:27.158Z,0.00
2023-02-09T06:53:27.570Z,0.00
2023-02-09T06:54:26.918Z,0.00
2023-02-09T06:55:27.371Z,0.00
2023-02-09T06:56:27.812Z,0.00
2023-02-09T06:57:27.257Z,0.00
2023-02-09T06:58:28.606Z,0.00
2023-02-09T06:59:28.155Z,0.00
2023-02-09T07:00:27.544Z,0.00
2023-02-09T07:01:27.024Z,0.00
2023-02-09T07:02:27.555Z,0.00
2023-02-09T07:03:27.862Z,0.00
2023-02-09T07:04:28.301Z,0.00
2023-02-09T07:05:28.683Z,0.00
2023-02-09T07:06:27.182Z,0.00
2023-02-09T07:07:27.627Z,0.00
2023-02-09T07:08:27.087Z,0.00
2023-02-09T07:09:28.417Z,0.00
2023-02-09T07:10:26.895Z,0.00
2023-02-09T07:11:28.340Z,0.00
2023-02-09T07:12:27.666Z,0.00
2023-02-09T07:13:27.236Z,0.00
2023-02-09T07:14:27.536Z,0.00
2023-02-09T07:15:27.962Z,0.00
2023-02-09T07:16:28.703Z,0.00
2023-02-09T07:17:27.861Z,0.00
2023-02-09T07:18:27.444Z,5.62
2023-02-09T07:19:28.768Z,5.62
2023-02-09T07:20:27.216Z,5.62
2023-02-09T07:21:27.621Z,5.62
2023-02-09T07:22:28.072Z,5.62
2023-02-09T07:23:26.528Z,5.62
2023-02-09T07:24:27.572Z,5.62
2023-02-09T07:25:28.385Z,5.62
2023-02-09T07:26:27.809Z,5.62
2023-02-09T07:27:27.278Z,5.62
2023-02-09T07:28:27.703Z,5.62
2023-02-09T07:29:27.248Z,5.62
2023-02-09T07:30:26.852Z,5.62
2023-02-09T07:31:27.405Z,5.62
2023-02-09T07:32:27.497Z,5.62
2023-02-09T07:33:27.973Z,5.62
2023-02-09T07:34:28.445Z,5.62
2023-02-09T07:35:27.886Z,5.62
2023-02-09T07:36:27.302Z,5.62
2023-02-09T07:37:26.828Z,5.62
2023-02-09T07:38:28.204Z,5.62
2023-02-09T07:39:27.666Z,5.62
2023-02-09T07:40:28.126Z,5.62
2023-02-09T07:41:27.721Z,11.25
2023-02-09T07:42:28.006Z,11.25
2023-02-09T07:43:27.469Z,11.25
2023-02-09T07:44:27.944Z,11.25
2023-02-09T07:45:26.394Z,11.25
2023-02-09T07:46:27.864Z,11.25
2023-02-09T07:47:27.222Z,11.25
2023-02-09T07:48:27.694Z,11.25
2023-02-09T07:49:27.133Z,11.25
2023-02-09T07:50:27.656Z,11.25
2023-02-09T07:51:27.127Z,11.25
2023-02-09T07:52:27.608Z,11.25
2023-02-09T07:53:27.070Z,11.25
2023-02-09T07:54:26.564Z,11.25
2023-02-09T07:55:26.993Z,11.25
2023-02-09T07:56:27.348Z,11.25
2023-02-09T07:57:27.847Z,11.25
2023-02-09T07:58:26.340Z,11.25
2023-02-09T07:59:27.747Z,11.25
2023-02-09T08:00:27.196Z,11.25
2023-02-09T08:01:27.652Z,11.25
2023-02-09T08:02:27.046Z,11.25
2023-02-09T08:03:26.656Z,16.88
2023-02-09T08:04:26.990Z,16.88
2023-02-09T08:05:26.479Z,16.88
2023-02-09T08:06:39.810Z,16.88
2023-02-09T08:07:28.282Z,16.88
2023-02-09T08:08:27.782Z,16.88
2023-02-09T08:09:26.210Z,16.88
2023-02-09T08:10:28.598Z,16.88
2023-02-09T08:11:27.003Z,16.88
2023-02-09T08:12:27.596Z,16.88
2023-02-09T08:13:27.005Z,16.88
2023-02-09T08:14:27.538Z,16.88
2023-02-09T08:15:25.814Z,16.88
2023-02-09T08:16:27.255Z,16.88
2023-02-09T08:17:27.683Z,16.88
2023-02-09T08:18:26.143Z,16.88
2023-02-09T08:19:27.588Z,16.88
2023-02-09T08:20:26.064Z,16.88
2023-02-09T08:21:26.484Z,16.88
2023-02-09T08:22:25.958Z,16.88
2023-02-09T08:23:27.344Z,22.50
2023-02-09T08:24:26.718Z,22.50
2023-02-09T08:25:26.318Z,22.50
2023-02-09T08:26:26.538Z,22.50
2023-02-09T08:27:26.119Z,22.50
2023-02-09T08:28:41.702Z,22.50
2023-02-09T08:29:26.918Z,22.50
2023-02-09T08:30:27.332Z,22.50
2023-02-09T08:31:26.835Z,22.50
2023-02-09T08:32:27.098Z,22.50
2023-02-09T08:33:27.534Z,22.50
2023-02-09T08:34:26.989Z,22.50
2023-02-09T08:35:26.426Z,22.50
2023-02-09T08:36:26.723Z,22.50
2023-02-09T08:37:27.119Z,22.50
2023-02-09T08:38:25.551Z,22.50
2023-02-09T08:39:26.000Z,22.50
2023-02-09T08:40:26.388Z,22.50
2023-02-09T08:41:27.032Z,22.50
2023-02-09T08:42:27.607Z,22.50
2023-02-09T08:43:25.586Z,22.50
2023-02-09T08:44:26.000Z,22.50
2023-02-09T08:45:27.450Z,22.50
2023-02-09T08:46:25.982Z,22.50
2023-02-09T08:47:26.236Z,22.50
2023-02-09T08:48:25.623Z,22.50
2023-02-09T08:49:26.033Z,22.50
2023-02-09T08:50:26.501Z,22.50
2023-02-09T08:51:25.876Z,28.12
2023-02-09T08:52:26.378Z,28.12
2023-02-09T08:53:25.804Z,28.12
2023-02-09T08:54:27.037Z,28.12
2023-02-09T08:55:25.424Z,28.12
2023-02-09T08:56:26.798Z,28.12
2023-02-09T08:57:41.683Z,28.12
2023-02-09T08:58:26.655Z,28.12
2023-02-09T08:59:26.106Z,28.12
2023-02-09T09:00:26.447Z,28.12
2023-02-09T09:01:27.113Z,28.12
2023-02-09T09:02:25.255Z,28.12
2023-02-09T09:03:25.854Z,28.12
2023-02-09T09:04:26.082Z,28.12
2023-02-09T09:05:26.436Z,28.12
2023-02-09T09:06:26.880Z,28.12
2023-02-09T09:07:26.202Z,28.12
2023-02-09T09:08:26.611Z,28.12
2023-02-09T09:09:26.134Z,28.12
2023-02-09T09:10:25.452Z,28.12
2023-02-09T09:11:25.884Z,28.12
2023-02-09T09:12:25.315Z,28.12
2023-02-09T09:13:26.615Z,28.12
2023-02-09T09:14:26.123Z,28.12
2023-02-09T09:15:26.469Z,28.12
2023-02-09T09:16:26.947Z,28.12
2023-02-09T09:17:25.239Z,28.12
2023-02-09T09:18:26.640Z,28.12
2023-02-09T09:19:25.048Z,28.12
2023-02-09T09:20:25.482Z,28.12
2023-02-09T09:21:26.896Z,28.12
2023-02-09T09:22:25.254Z,28.12
2023-02-09T09:23:25.648Z,28.12
2023-02-09T09:24:25.014Z,28.12
2023-02-09T09:25:25.426Z,28.12
2023-02-09T09:26:26.944Z,28.12
2023-02-09T09:27:27.101Z,28.12
2023-02-09T09:28:26.646Z,28.12
2023-02-09T09:29:26.126Z,28.12
2023-02-09T09:30:26.427Z,28.12
2023-02-09T09:31:26.858Z,28.12
2023-02-09T09:32:27.523Z,28.12
2023-02-09T09:33:25.648Z,28.12
2023-02-09T09:34:25.979Z,33.75
2023-02-09T09:35:25.377Z,33.75
2023-02-09T09:36:26.729Z,33.75
2023-02-09T09:37:25.150Z,33.75
2023-02-09T09:38:26.537Z,33.75
2023-02-09T09:39:25.844Z,28.12
2023-02-09T09:40:25.310Z,28.12
2023-02-09T09:41:25.701Z,28.12
2023-02-09T09:42:26.005Z,33.75
2023-02-09T09:43:25.449Z,28.12
2023-02-09T09:44:26.107Z,28.12
2023-02-09T09:45:25.215Z,28.12
2023-02-09T09:46:25.641Z,33.75
2023-02-09T09:47:24.985Z,33.75
2023-02-09T09:48:26.340Z,33.75
2023-02-09T09:49:24.744Z,28.12
2023-02-09T09:50:26.521Z,33.75
2023-02-09T09:51:25.505Z,33.75
2023-02-09T09:52:24.870Z,33.75
2023-02-09T09:53:25.241Z,33.75
2023-02-09T09:54:26.614Z,33.75
2023-02-09T09:55:25.965Z,33.75
2023-02-09T09:56:27.156Z,28.12
2023-02-09T09:57:25.824Z,28.12
2023-02-09T09:58:25.083Z,33.75
2023-02-09T09:59:25.503Z,33.75
2023-02-09T10:00:25.763Z,33.75
2023-02-09T10:01:26.281Z,33.75
2023-02-09T10:02:25.554Z,33.75
2023-02-09T10:03:24.948Z,33.75
2023-02-09T10:04:25.377Z,33.75
2023-02-09T10:05:24.612Z,33.75
2023-02-09T10:06:25.971Z,33.75
2023-02-09T10:07:25.323Z,33.75
2023-02-09T10:08:24.798Z,33.75
2023-02-09T10:09:26.072Z,33.75
2023-02-09T10:10:24.463Z,33.75
2023-02-09T10:11:25.843Z,33.75
2023-02-09T10:12:25.197Z,33.75
2023-02-09T10:13:25.510Z,33.75
2023-02-09T10:14:26.608Z,33.75
2023-02-09T10:15:25.225Z,33.75
2023-02-09T10:16:24.677Z,33.75
2023-02-09T10:17:25.956Z,33.75
2023-02-09T10:18:25.275Z,33.75
2023-02-09T10:19:24.724Z,33.75
2023-02-09T10:20:25.117Z,33.75
2023-02-09T10:21:25.400Z,33.75
2023-02-09T10:22:25.757Z,33.75
2023-02-09T10:23:26.114Z,33.75
2023-02-09T10:24:24.455Z,33.75
2023-02-09T10:25:25.768Z,33.75
2023-02-09T10:26:24.507Z,33.75
2023-02-09T10:27:24.539Z,33.75
2023-02-09T10:28:25.051Z,33.75
2023-02-09T10:29:24.268Z,33.75
2023-02-09T10:30:25.556Z,33.75
2023-02-09T10:31:25.576Z,39.38
2023-02-09T10:32:25.206Z,39.38
2023-02-09T10:33:24.708Z,33.75
2023-02-09T10:34:24.985Z,33.75
2023-02-09T10:35:24.297Z,33.75
2023-02-09T10:36:25.617Z,33.75
2023-02-09T10:37:24.988Z,33.75
2023-02-09T10:38:24.373Z,33.75
2023-02-09T10:39:25.694Z,33.75
2023-02-09T10:40:25.023Z,33.75
2023-02-09T10:41:25.402Z,33.75
2023-02-09T10:42:24.853Z,33.75
2023-02-09T10:43:25.134Z,33.75
2023-02-09T10:44:25.482Z,33.75
2023-02-09T10:45:23.872Z,33.75
2023-02-09T10:46:24.379Z,33.75
2023-02-09T10:47:24.622Z,33.75
2023-02-09T10:48:25.027Z,33.75
2023-02-09T10:49:24.342Z,33.75
2023-02-09T10:50:25.658Z,33.75
2023-02-09T10:51:25.053Z,33.75
2023-02-09T10:52:25.397Z,33.75
2023-02-09T10:53:24.734Z,33.75
2023-02-09T10:54:25.156Z,33.75
2023-02-09T10:55:25.466Z,33.75
2023-02-09T10:56:23.805Z,33.75
2023-02-09T10:57:25.136Z,33.75
2023-02-09T10:58:25.465Z,33.75
2023-02-09T10:59:24.795Z,33.75
2023-02-09T11:00:25.241Z,33.75
2023-02-09T11:01:25.558Z,33.75
2023-02-09T11:02:24.845Z,33.75
2023-02-09T11:03:24.254Z,33.75
2023-02-09T11:04:25.598Z,33.75
2023-02-09T11:05:24.847Z,39.38
2023-02-09T11:06:25.259Z,33.75
2023-02-09T11:07:24.515Z,33.75
2023-02-09T11:08:24.902Z,33.75
2023-02-09T11:09:25.172Z,33.75
2023-02-09T11:10:25.520Z,39.38
2023-02-09T11:11:24.795Z,39.38
2023-02-09T11:12:25.203Z,33.75
2023-02-09T11:13:25.475Z,39.38
2023-02-09T11:14:23.816Z,39.38
2023-02-09T11:15:25.085Z,39.38
2023-02-09T11:16:23.547Z,39.38
2023-02-09T11:17:24.721Z,39.38
2023-02-09T11:18:24.146Z,39.38
2023-02-09T11:19:24.438Z,39.38
2023-02-09T11:20:23.697Z,39.38
2023-02-09T11:21:24.946Z,33.75
2023-02-09T11:22:28.821Z,39.38
2023-02-09T11:23:24.925Z,39.38
2023-02-09T11:24:26.058Z,39.38
2023-02-09T11:25:24.348Z,33.75
2023-02-09T11:26:23.480Z,39.38
2023-02-09T11:27:23.933Z,39.38
2023-02-09T11:28:24.216Z,33.75
2023-02-09T11:29:24.432Z,33.75
2023-02-09T11:30:24.796Z,33.75
2023-02-09T11:31:25.199Z,39.38
2023-02-09T11:32:23.408Z,39.38
2023-02-09T11:33:23.737Z,33.75
2023-02-09T11:34:26.382Z,33.75
2023-02-09T11:35:23.348Z,33.75
2023-02-09T11:36:24.648Z,33.75
2023-02-09T11:37:24.983Z,33.75
2023-02-09T11:38:24.170Z,33.75
2023-02-09T11:39:24.593Z,33.75
2023-02-09T11:40:24.920Z,33.75
2023-02-09T11:41:23.219Z,33.75
2023-02-09T11:42:24.549Z,33.75
2023-02-09T11:43:24.809Z,33.75
2023-02-09T11:44:24.173Z,33.75
2023-02-09T11:45:23.519Z,33.75
2023-02-09T11:46:23.856Z,33.75
2023-02-09T11:47:23.075Z,33.75
2023-02-09T11:48:24.351Z,33.75
2023-02-09T11:49:23.729Z,33.75
2023-02-09T11:50:23.049Z,33.75
2023-02-09T11:51:24.685Z,33.75
2023-02-09T11:52:24.628Z,33.75
2023-02-09T11:53:24.916Z,33.75
2023-02-09T11:54:23.267Z,33.75
2023-02-09T11:55:23.599Z,33.75
2023-02-09T11:56:24.916Z,33.75
2023-02-09T11:57:23.172Z,33.75
2023-02-09T11:58:23.491Z,33.75
2023-02-09T11:59:24.775Z,33.75
2023-02-09T12:00:23.087Z,33.75
2023-02-09T12:01:23.409Z,33.75
2023-02-09T12:02:23.957Z,33.75
2023-02-09T12:03:23.017Z,33.75
2023-02-09T12:04:23.282Z,33.75
2023-02-09T12:05:23.602Z,33.75
2023-02-09T12:06:23.169Z,33.75
2023-02-09T12:07:23.175Z,33.75
2023-02-09T12:08:24.476Z,33.75
2023-02-09T12:09:22.769Z,33.75
2023-02-09T12:10:23.098Z,33.75
2023-02-09T12:11:23.482Z,33.75
2023-02-09T12:12:22.727Z,33.75
2023-02-09T12:13:23.062Z,33.75
2023-02-09T12:14:23.455Z,33.75
2023-02-09T12:15:22.667Z,33.75
2023-02-09T12:16:23.052Z,33.75
2023-02-09T12:17:23.324Z,33.75
2023-02-09T12:18:23.653Z,33.75
2023-02-09T12:19:22.941Z,33.75
2023-02-09T12:20:23.487Z,33.75
2023-02-09T12:21:24.535Z,33.75
2023-02-09T12:22:22.855Z,33.75
2023-02-09T12:23:23.155Z,33.75
2023-02-09T12:24:23.532Z,33.75
2023-02-09T12:25:22.784Z,33.75
2023-02-09T12:26:23.147Z,33.75
2023-02-09T12:27:23.397Z,33.75
2023-02-09T12:28:22.729Z,33.75
2023-02-09T12:29:22.996Z,33.75
2023-02-09T12:30:23.320Z,33.75
2023-02-09T12:31:22.780Z,33.75
2023-02-09T12:32:22.943Z,33.75
2023-02-09T12:33:23.275Z,33.75
2023-02-09T12:34:22.549Z,33.75
2023-02-09T12:35:22.842Z,33.75
2023-02-09T12:36:23.180Z,33.75
2023-02-09T12:37:27.329Z,33.75
2023-02-09T12:38:23.734Z,33.75
2023-02-09T12:39:24.337Z,33.75
2023-02-09T12:40:23.369Z,33.75
2023-02-09T12:41:22.652Z,33.75
2023-02-09T12:42:23.003Z,33.75
2023-02-09T12:43:23.245Z,33.75
2023-02-09T12:44:22.557Z,33.75
2023-02-09T12:45:22.823Z,33.75
2023-02-09T12:46:23.179Z,33.75
2023-02-09T12:47:22.418Z,33.75
2023-02-09T12:48:22.786Z,33.75
2023-02-09T12:49:23.165Z,33.75
2023-02-09T12:50:22.310Z,33.75
2023-02-09T12:51:22.597Z,33.75
2023-02-09T12:52:22.925Z,33.75
2023-02-09T12:53:22.199Z,33.75
2023-02-09T12:54:22.551Z,33.75
2023-02-09T12:55:22.775Z,33.75
2023-02-09T12:56:23.122Z,33.75
2023-02-09T12:57:22.339Z,33.75
2023-02-09T12:58:22.646Z,33.75
2023-02-09T12:59:22.991Z,33.75
2023-02-09T13:00:22.272Z,33.75
2023-02-09T13:01:23.529Z,33.75
2023-02-09T13:02:22.833Z,33.75
2023-02-09T13:03:22.127Z,33.75
2023-02-09T13:04:22.553Z,33.75
2023-02-09T13:05:22.764Z,33.75
2023-02-09T13:06:23.050Z,33.75
2023-02-09T13:07:22.368Z,33.75